This is the latest recevied weather packets stored in our database for station/object DL1YAU. If no packets are shown the sender has not sent any weather packets the latest 10 day(s).
| Time | Temp. | Humidity | Pressure | Rain* | Wind** | Luminosity | Snow |
|---|---|---|---|---|---|---|---|
| 1777507452 | 6.67° C | 49% | - | 0 mm | - | 0 W/m² | - |
| 1777500852 | 7.78° C | 49% | - | 0 mm | - | 0 W/m² | - |
| 1777497251 | 8.33° C | 49% | - | 0 mm | - | 0 W/m² | - |
| 1777496651 | 8.33° C | 49% | - | 0 mm | - | 0 W/m² | - |
| 1777496051 | 8.33° C | 49% | - | 0 mm | - | 0 W/m² | - |
| 1777495451 | 8.89° C | 48% | - | 0 mm | - | 0 W/m² | - |
| 1777485855 | 11.67° C | 40% | - | 0 mm | - | 54 W/m² | - |
| 1777483455 | 12.78° C | 39% | - | 0 mm | - | 153 W/m² | - |
| 1777478654 | 14.44° C | 36% | - | 0 mm | - | 353 W/m² | - |
| 1777472053 | 16.11° C | 36% | - | 0 mm | - | 592 W/m² | - |
| 1777468453 | 15.56° C | 38% | - | 0 mm | - | 684 W/m² | - |
| 1777467253 | 15.56° C | 39% | - | 0 mm | - | 320 W/m² | - |
| 1777462452 | 15° C | 40% | - | 0 mm | - | 765 W/m² | - |
| 1777454051 | 12.78° C | 40% | - | 0 mm | - | 677 W/m² | - |
| 1777449854 | 11.67° C | 42% | - | 0 mm | - | 552 W/m² | - |
| 1777447454 | 10.56° C | 46% | - | 0 mm | - | 464 W/m² | - |
| 1777442653 | 5.56° C | 57% | - | 0 mm | - | 265 W/m² | - |
| 1777433052 | 4.44° C | 63% | - | 0 mm | - | 0 W/m² | - |
| 1777431852 | 3.89° C | 63% | - | 0 mm | - | 0 W/m² | - |
| 1777425851 | 5.56° C | 57% | - | 0 mm | - | 0 W/m² | - |
| 1777425251 | 5.56° C | 57% | - | 0 mm | - | 0 W/m² | - |
| 1777397652 | 12.78° C | 38% | - | 0 mm | - | 120 W/m² | - |
| 1777393452 | 13.89° C | 39% | - | 0 mm | - | 295 W/m² | - |
| 1777389851 | 15.56° C | 39% | - | 0 mm | - | 432 W/m² | - |
| 1777384451 | 15.56° C | 43% | - | 0 mm | - | 613 W/m² | - |
* Rain latest hour (hover to see other rain measurements)
** Current wind speed in m/s (hover to see current wind gust speed)